createdAt,value
2022-11-24T00:01:53.714Z,1.80
2022-11-24T00:04:23.309Z,1.77
2022-11-24T00:06:54.398Z,1.72
2022-11-24T00:09:23.510Z,1.71
2022-11-24T00:11:52.607Z,1.70
2022-11-24T00:14:22.116Z,1.69
2022-11-24T00:16:54.441Z,1.67
2022-11-24T00:19:23.640Z,1.64
2022-11-24T00:21:52.707Z,1.60
2022-11-24T00:24:21.800Z,1.59
2022-11-24T00:26:51.205Z,1.55
2022-11-24T00:29:20.435Z,1.50
2022-11-24T00:31:49.571Z,1.46
2022-11-24T00:34:18.916Z,1.45
2022-11-24T00:36:47.779Z,1.45
2022-11-24T00:39:18.317Z,1.44
2022-11-24T00:41:47.451Z,1.39
2022-11-24T00:44:16.621Z,1.36
2022-11-24T00:46:45.874Z,1.33
2022-11-24T00:49:15.132Z,1.33
2022-11-24T00:51:46.957Z,1.28
2022-11-24T00:54:16.005Z,1.23
2022-11-24T00:56:45.066Z,1.19
2022-11-24T00:59:14.077Z,1.17
2022-11-24T01:01:43.948Z,1.15
2022-11-24T01:04:13.048Z,1.11
2022-11-24T01:06:42.290Z,1.13
2022-11-24T01:09:13.189Z,1.13
2022-11-24T01:12:00.423Z,1.10
2022-11-24T01:14:30.391Z,1.08
2022-11-24T01:17:00.046Z,1.09
2022-11-24T01:19:29.208Z,1.10
2022-11-24T01:21:58.835Z,1.10
2022-11-24T01:24:27.955Z,1.07
2022-11-24T01:26:57.039Z,1.08
2022-11-24T01:29:27.306Z,1.05
2022-11-24T01:31:56.307Z,1.02
2022-11-24T01:34:25.269Z,1.01
2022-11-24T01:36:54.435Z,0.96
2022-11-24T01:39:23.352Z,0.95
2022-11-24T01:41:53.820Z,0.96
2022-11-24T01:44:32.978Z,0.94
2022-11-24T01:47:26.271Z,0.92
2022-11-24T01:50:01.404Z,0.89
2022-11-24T01:52:55.538Z,0.88
2022-11-24T01:55:35.280Z,0.88
2022-11-24T01:58:25.775Z,0.85
2022-11-24T02:00:56.028Z,0.82
2022-11-24T02:03:32.418Z,0.79
2022-11-24T02:06:15.681Z,0.78
2022-11-24T02:08:56.632Z,0.80
2022-11-24T02:11:32.133Z,0.80
2022-11-24T02:14:01.862Z,0.74
2022-11-24T02:16:31.766Z,0.69
2022-11-24T02:19:01.028Z,0.64
2022-11-24T02:21:30.451Z,0.61
2022-11-24T02:24:14.325Z,0.58
2022-11-24T02:26:50.159Z,0.56
2022-11-24T02:29:21.323Z,0.52
2022-11-24T02:32:00.805Z,0.48
2022-11-24T02:34:29.996Z,0.44
2022-11-24T02:36:59.059Z,0.42
2022-11-24T02:39:28.110Z,0.40
2022-11-24T02:42:06.645Z,0.38
2022-11-24T02:44:48.344Z,0.38
2022-11-24T02:47:17.387Z,0.35
2022-11-24T02:49:46.487Z,0.32
2022-11-24T02:52:17.000Z,0.31
2022-11-24T02:54:46.230Z,0.28
2022-11-24T02:57:15.396Z,0.27
2022-11-24T02:59:44.537Z,0.22
2022-11-24T03:02:13.738Z,0.19
2022-11-24T03:04:45.755Z,0.18
2022-11-24T03:07:15.805Z,0.14
2022-11-24T03:09:44.968Z,0.10
2022-11-24T03:12:13.937Z,0.07
2022-11-24T03:14:42.889Z,0.06
2022-11-24T03:17:11.965Z,0.08
2022-11-24T03:19:40.933Z,0.09
2022-11-24T03:22:10.164Z,0.11
2022-11-24T03:24:39.398Z,0.09
2022-11-24T03:27:08.732Z,0.08
2022-11-24T03:29:37.819Z,0.08
2022-11-24T03:32:07.145Z,0.08
2022-11-24T03:34:36.447Z,0.07
2022-11-24T03:37:06.288Z,0.06
2022-11-24T03:39:35.370Z,0.08
2022-11-24T03:42:04.457Z,0.09
2022-11-24T03:44:33.948Z,0.07
2022-11-24T03:47:03.348Z,0.05
2022-11-24T03:49:33.056Z,0.09
2022-11-24T03:52:07.867Z,0.12
2022-11-24T03:54:37.870Z,0.16
2022-11-24T03:57:07.201Z,0.21
2022-11-24T03:59:36.518Z,0.23
2022-11-24T04:02:05.554Z,0.22
2022-11-24T04:04:34.796Z,0.24
2022-11-24T04:07:06.687Z,0.22
2022-11-24T04:09:35.757Z,0.22
2022-11-24T04:12:23.259Z,0.24
2022-11-24T04:14:52.324Z,0.25
2022-11-24T04:17:21.476Z,0.25
2022-11-24T04:19:50.501Z,0.24
2022-11-24T04:22:19.705Z,0.22
2022-11-24T04:24:48.776Z,0.22
2022-11-24T04:27:17.933Z,0.23
2022-11-24T04:29:46.975Z,0.26
2022-11-24T04:32:16.182Z,0.26
2022-11-24T04:34:45.599Z,0.28
2022-11-24T04:37:15.101Z,0.32
2022-11-24T04:39:46.153Z,0.34
2022-11-24T04:42:15.927Z,0.37
2022-11-24T04:44:44.869Z,0.38
2022-11-24T04:47:27.147Z,0.40
2022-11-24T04:49:56.567Z,0.44
2022-11-24T04:52:27.967Z,0.51
2022-11-24T04:54:56.944Z,0.58
2022-11-24T04:57:28.831Z,0.60
2022-11-24T04:59:57.996Z,0.63
2022-11-24T05:02:27.792Z,0.63
2022-11-24T05:04:56.835Z,0.62
2022-11-24T05:07:26.007Z,0.61
2022-11-24T05:10:13.463Z,0.60
2022-11-24T05:12:45.776Z,0.61
2022-11-24T05:15:17.609Z,0.62
2022-11-24T05:17:46.777Z,0.66
2022-11-24T05:20:16.338Z,0.69
2022-11-24T05:22:46.810Z,0.74
2022-11-24T05:25:16.034Z,0.75
2022-11-24T05:27:45.584Z,0.76
2022-11-24T05:30:15.209Z,0.75
2022-11-24T05:32:44.705Z,0.74
2022-11-24T05:35:14.389Z,0.71
2022-11-24T05:37:43.329Z,0.69
2022-11-24T05:40:13.506Z,0.71
2022-11-24T05:42:47.084Z,0.72
2022-11-24T05:45:22.008Z,0.74
2022-11-24T05:47:52.686Z,0.74
2022-11-24T05:50:24.070Z,0.77
2022-11-24T05:52:53.068Z,0.79
2022-11-24T05:55:22.181Z,0.82
2022-11-24T05:57:58.767Z,0.87
2022-11-24T06:00:28.329Z,0.89
2022-11-24T06:02:59.251Z,0.91
2022-11-24T06:05:30.404Z,0.95
2022-11-24T06:08:01.948Z,0.98
2022-11-24T06:10:31.626Z,1.03
2022-11-24T06:13:00.829Z,1.07
2022-11-24T06:15:30.052Z,1.08
2022-11-24T06:17:59.359Z,1.11
2022-11-24T06:20:32.620Z,1.16
2022-11-24T06:23:03.182Z,1.18
2022-11-24T06:25:32.196Z,1.15
2022-11-24T06:28:06.421Z,1.16
2022-11-24T06:30:35.393Z,1.17
2022-11-24T06:33:04.536Z,1.20
2022-11-24T06:35:33.694Z,1.21
2022-11-24T06:38:02.795Z,1.22
2022-11-24T06:40:31.988Z,1.23
2022-11-24T06:43:01.189Z,1.17
2022-11-24T06:45:30.383Z,1.11
2022-11-24T06:47:59.546Z,1.03
2022-11-24T06:50:33.428Z,0.98
2022-11-24T06:53:02.942Z,0.94
2022-11-24T06:55:32.131Z,0.91
2022-11-24T06:58:01.207Z,0.89
2022-11-24T07:00:33.171Z,0.85
2022-11-24T07:03:02.798Z,0.84
2022-11-24T07:05:32.051Z,0.85
2022-11-24T07:08:04.156Z,0.85
2022-11-24T07:10:33.301Z,0.83
2022-11-24T07:13:04.943Z,0.82
2022-11-24T07:15:34.175Z,0.82
2022-11-24T07:18:03.241Z,0.81
2022-11-24T07:20:32.261Z,0.80
2022-11-24T07:23:04.010Z,0.80
2022-11-24T07:25:33.209Z,0.81
2022-11-24T07:28:02.670Z,0.81
2022-11-24T07:30:31.846Z,0.81
2022-11-24T07:33:03.529Z,0.81
2022-11-24T07:35:36.033Z,0.79
2022-11-24T07:38:06.038Z,0.78
2022-11-24T07:40:35.530Z,0.79
2022-11-24T07:43:04.970Z,0.80
2022-11-24T07:45:34.524Z,0.80
2022-11-24T07:48:03.657Z,0.79
2022-11-24T07:50:32.755Z,0.78
2022-11-24T07:53:06.122Z,0.78
2022-11-24T07:55:35.301Z,0.79
2022-11-24T07:58:05.362Z,0.80
2022-11-24T08:00:34.452Z,0.78
2022-11-24T08:03:03.624Z,0.74
2022-11-24T08:05:32.564Z,0.73
2022-11-24T08:08:02.086Z,0.71
2022-11-24T08:10:31.020Z,0.70
2022-11-24T08:13:03.806Z,0.67
2022-11-24T08:15:32.870Z,0.65
2022-11-24T08:18:04.651Z,0.63
2022-11-24T08:20:33.753Z,0.60
2022-11-24T08:23:03.003Z,0.56
2022-11-24T08:25:34.810Z,0.52
2022-11-24T08:28:05.655Z,0.46
2022-11-24T08:30:34.918Z,0.39
2022-11-24T08:33:03.886Z,0.33
2022-11-24T08:35:32.785Z,0.26
2022-11-24T08:38:04.848Z,0.23
2022-11-24T08:40:34.665Z,0.21
2022-11-24T08:43:03.936Z,0.18
2022-11-24T08:45:36.753Z,0.15
2022-11-24T08:48:10.849Z,0.11
2022-11-24T08:50:39.827Z,0.07
2022-11-24T08:53:08.932Z,0.06
2022-11-24T08:55:38.012Z,0.05
2022-11-24T08:58:07.016Z,0.03
2022-11-24T09:00:36.218Z,0.01
2022-11-24T09:03:06.656Z,-0.01
2022-11-24T09:05:51.891Z,-0.02
2022-11-24T09:08:22.093Z,-0.02
2022-11-24T09:10:51.143Z,-0.02
2022-11-24T09:13:20.171Z,-0.04
2022-11-24T09:15:49.299Z,-0.05
2022-11-24T09:18:18.440Z,-0.05
2022-11-24T09:20:47.402Z,-0.06
2022-11-24T09:23:17.172Z,-0.05
2022-11-24T09:25:46.298Z,-0.02
2022-11-24T09:28:15.560Z,0.00
2022-11-24T09:30:44.861Z,0.01
2022-11-24T09:33:14.179Z,0.01
2022-11-24T09:35:43.084Z,0.01
2022-11-24T09:38:12.403Z,0.03
2022-11-24T09:40:41.556Z,0.01
2022-11-24T09:43:27.162Z,-0.01
2022-11-24T09:46:20.753Z,-0.04
2022-11-24T09:48:58.119Z,-0.07
2022-11-24T09:51:33.184Z,-0.10
2022-11-24T09:54:10.903Z,-0.12
2022-11-24T09:56:44.300Z,-0.14
2022-11-24T09:59:21.365Z,-0.15
2022-11-24T10:01:53.963Z,-0.20
2022-11-24T10:04:29.780Z,-0.20
2022-11-24T10:07:13.837Z,-0.18
2022-11-24T10:10:10.244Z,-0.16
2022-11-24T10:13:23.374Z,-0.15
2022-11-24T10:16:05.305Z,-0.16
2022-11-24T10:18:45.832Z,-0.16
2022-11-24T10:21:48.775Z,-0.18
2022-11-24T10:25:05.029Z,-0.21
2022-11-24T10:27:43.581Z,-0.23
2022-11-24T10:30:23.199Z,-0.27
2022-11-24T10:33:30.545Z,-0.31
2022-11-24T10:36:18.154Z,-0.33
2022-11-24T10:39:12.126Z,-0.35
2022-11-24T10:42:10.028Z,-0.37
2022-11-24T10:44:40.785Z,-0.41
2022-11-24T10:47:23.812Z,-0.46
2022-11-24T10:50:07.722Z,-0.48
2022-11-24T10:52:48.808Z,-0.50
2022-11-24T10:55:18.114Z,-0.46
2022-11-24T10:57:47.287Z,-0.46
2022-11-24T11:00:22.130Z,-0.45
2022-11-24T11:03:11.199Z,-0.45
2022-11-24T11:05:45.121Z,-0.45
2022-11-24T11:08:20.899Z,-0.48
2022-11-24T11:11:16.051Z,-0.51
2022-11-24T11:14:03.008Z,-0.53
2022-11-24T11:16:47.190Z,-0.55
2022-11-24T11:19:49.834Z,-0.56
2022-11-24T11:22:32.285Z,-0.55
2022-11-24T11:25:20.823Z,-0.51
2022-11-24T11:27:50.774Z,-0.49
2022-11-24T11:36:17.977Z,-0.48
2022-11-24T11:38:49.676Z,-0.45
2022-11-24T11:41:41.648Z,-0.41
2022-11-24T11:44:30.160Z,-0.44
2022-11-24T11:47:10.269Z,-0.52
2022-11-24T11:49:41.070Z,-0.57
2022-11-24T11:52:43.723Z,-0.59
2022-11-24T11:55:22.510Z,-0.63
2022-11-24T11:58:06.575Z,-0.66
2022-11-24T12:00:47.879Z,-0.69
2022-11-24T12:03:54.166Z,-0.66
2022-11-24T12:06:54.538Z,-0.65
2022-11-24T12:10:02.887Z,-0.66
2022-11-24T12:12:59.629Z,-0.67
2022-11-24T12:15:43.579Z,-0.65
2022-11-24T12:18:57.105Z,-0.65
2022-11-24T12:22:07.662Z,-0.66
2022-11-24T12:25:03.656Z,-0.69
2022-11-24T12:28:24.420Z,-0.69
2022-11-24T12:31:08.145Z,-0.70
2022-11-24T12:34:01.352Z,-0.70
2022-11-24T12:37:27.973Z,-0.69
2022-11-24T12:40:11.264Z,-0.72
2022-11-24T12:42:40.443Z,-0.76
2022-11-24T12:45:16.197Z,-0.75
2022-11-24T12:48:01.610Z,-0.77
2022-11-24T12:50:34.503Z,-0.80
2022-11-24T12:53:25.887Z,-0.81
2022-11-24T12:55:58.188Z,-0.81
2022-11-24T12:58:46.794Z,-0.81
2022-11-24T13:01:42.045Z,-0.82
2022-11-24T13:04:32.294Z,-0.82
2022-11-24T13:07:55.358Z,-0.84
2022-11-24T13:10:54.079Z,-0.82
2022-11-24T13:13:19.636Z,-0.79
2022-11-24T13:16:20.716Z,-0.80
2022-11-24T13:19:08.404Z,-0.84
2022-11-24T13:21:49.209Z,-0.83
2022-11-24T13:24:32.604Z,-0.84
2022-11-24T13:27:17.218Z,-0.82
2022-11-24T13:29:49.552Z,-0.81
2022-11-24T13:32:22.521Z,-0.79
2022-11-24T13:34:56.042Z,-0.77
2022-11-24T13:37:26.657Z,-0.76
2022-11-24T13:40:18.213Z,-0.78
2022-11-24T13:43:02.243Z,-0.75
2022-11-24T13:45:44.414Z,-0.73
2022-11-24T13:48:22.942Z,-0.72
2022-11-24T13:50:52.138Z,-0.72
2022-11-24T13:53:49.600Z,-0.74
2022-11-24T13:56:18.607Z,-0.75
2022-11-24T13:58:56.654Z,-0.76
2022-11-24T14:01:42.040Z,-0.79
2022-11-24T14:04:32.566Z,-0.81
2022-11-24T14:07:13.716Z,-0.84
2022-11-24T14:09:50.844Z,-0.82
2022-11-24T14:12:23.390Z,-0.81
2022-11-24T14:15:00.670Z,-0.80
2022-11-24T14:17:30.268Z,-0.80
2022-11-24T14:20:00.309Z,-0.83
2022-11-24T14:22:55.296Z,-0.84
2022-11-24T14:25:34.547Z,-0.85
2022-11-24T14:28:04.183Z,-0.88
2022-11-24T14:30:33.536Z,-0.92
2022-11-24T14:33:05.400Z,-0.94
2022-11-24T14:35:37.135Z,-0.97
2022-11-24T14:38:08.144Z,-0.95
2022-11-24T14:40:46.604Z,-0.97
2022-11-24T14:43:29.520Z,-0.99
2022-11-24T14:46:02.575Z,-1.00
2022-11-24T14:48:55.299Z,-1.02
2022-11-24T14:51:34.175Z,-1.05
2022-11-24T14:54:24.222Z,-1.08
2022-11-24T14:57:09.481Z,-1.13
2022-11-24T14:59:39.380Z,-1.20
2022-11-24T15:02:49.391Z,-1.27
2022-11-24T15:05:20.163Z,-1.35
2022-11-24T15:07:53.877Z,-1.37
2022-11-24T15:10:43.385Z,-1.41
2022-11-24T15:13:25.097Z,-1.48
2022-11-24T15:16:06.474Z,-1.55
2022-11-24T15:18:56.474Z,-1.65
2022-11-24T15:21:39.285Z,-1.72
2022-11-24T15:24:19.228Z,-1.77
2022-11-24T15:26:48.989Z,-1.81
2022-11-24T15:29:18.666Z,-1.84
2022-11-24T15:31:52.414Z,-1.86
2022-11-24T15:34:23.232Z,-1.88
2022-11-24T15:36:52.404Z,-1.91
2022-11-24T15:39:21.432Z,-1.97
2022-11-24T15:41:50.656Z,-1.99
2022-11-24T15:44:19.604Z,-1.97
2022-11-24T15:46:48.706Z,-1.99
2022-11-24T15:49:17.982Z,-2.04
2022-11-24T15:51:49.793Z,-2.09
2022-11-24T15:54:20.862Z,-2.07
2022-11-24T15:56:49.913Z,-2.10
2022-11-24T15:59:21.085Z,-2.10
2022-11-24T16:01:51.659Z,-2.10
2022-11-24T16:04:21.667Z,-2.11
2022-11-24T16:06:50.687Z,-2.12
2022-11-24T16:09:19.877Z,-2.10
2022-11-24T16:11:49.005Z,-2.09
2022-11-24T16:14:18.044Z,-2.07
2022-11-24T16:16:47.248Z,-2.04
2022-11-24T16:19:16.984Z,-2.02
2022-11-24T16:21:49.941Z,-2.03
2022-11-24T16:24:18.992Z,-2.01
2022-11-24T16:26:48.765Z,-2.02
2022-11-24T16:29:18.139Z,-2.00
2022-11-24T16:31:48.228Z,-1.95
2022-11-24T16:34:18.008Z,-1.96
2022-11-24T16:36:47.252Z,-1.93
2022-11-24T16:39:16.439Z,-1.90
2022-11-24T16:41:45.712Z,-1.88
2022-11-24T16:44:14.696Z,-1.85
2022-11-24T16:46:45.856Z,-1.83
2022-11-24T16:49:15.746Z,-1.82
2022-11-24T16:51:44.806Z,-1.84
2022-11-24T16:54:13.908Z,-1.82
2022-11-24T16:56:42.829Z,-1.79
2022-11-24T16:59:12.924Z,-1.75
2022-11-24T17:01:42.321Z,-1.75
2022-11-24T17:04:12.887Z,-1.75
2022-11-24T17:06:42.447Z,-1.73
2022-11-24T17:09:12.603Z,-1.68
2022-11-24T17:11:41.597Z,-1.64
2022-11-24T17:14:12.604Z,-1.63
2022-11-24T17:16:42.106Z,-1.59
2022-11-24T17:19:11.561Z,-1.56
2022-11-24T17:21:40.908Z,-1.54
2022-11-24T17:24:16.279Z,-1.50
2022-11-24T17:26:49.144Z,-1.43
2022-11-24T17:29:18.665Z,-1.36
2022-11-24T17:31:47.856Z,-1.31
2022-11-24T17:34:16.983Z,-1.25
2022-11-24T17:36:47.144Z,-1.18
2022-11-24T17:39:20.309Z,-1.08
2022-11-24T17:41:52.588Z,-1.00
2022-11-24T17:44:21.890Z,-0.91
2022-11-24T17:46:51.654Z,-0.85
2022-11-24T17:49:22.294Z,-0.79
2022-11-24T17:51:51.593Z,-0.73
2022-11-24T17:57:27.365Z,-0.61
2022-11-24T17:59:56.717Z,-0.58
2022-11-24T18:02:26.996Z,-0.59
2022-11-24T18:04:59.107Z,-0.57
2022-11-24T18:07:28.476Z,-0.54
2022-11-24T18:09:58.540Z,-0.50
2022-11-24T18:12:27.809Z,-0.45
2022-11-24T18:14:57.070Z,-0.42
2022-11-24T18:17:26.340Z,-0.37
2022-11-24T18:19:55.333Z,-0.32
2022-11-24T18:22:49.925Z,-0.25
2022-11-24T18:25:13.890Z,-0.19
2022-11-24T18:27:43.007Z,-0.15
2022-11-24T18:30:12.716Z,-0.11
2022-11-24T18:32:42.433Z,-0.05
2022-11-24T18:35:12.043Z,0.01
2022-11-24T18:37:45.393Z,0.06
2022-11-24T18:40:14.867Z,0.14
2022-11-24T18:42:44.018Z,0.21
2022-11-24T18:45:13.953Z,0.31
2022-11-24T18:47:43.585Z,0.40
2022-11-24T18:50:13.517Z,0.48
2022-11-24T18:52:43.134Z,0.56
2022-11-24T18:55:13.126Z,0.69
2022-11-24T18:57:42.588Z,0.76
2022-11-24T19:00:13.111Z,0.83
2022-11-24T19:02:42.219Z,0.90
2022-11-24T19:05:11.618Z,0.92
2022-11-24T19:07:40.970Z,0.95
2022-11-24T19:10:11.113Z,1.00
2022-11-24T19:12:40.518Z,1.06
2022-11-24T19:15:10.933Z,1.16
2022-11-24T19:17:40.193Z,1.19
2022-11-24T19:20:10.162Z,1.22
2022-11-24T19:22:39.128Z,1.23
2022-11-24T19:25:09.669Z,1.29
2022-11-24T19:27:39.232Z,1.36
2022-11-24T19:30:10.213Z,1.45
2022-11-24T19:32:39.371Z,1.55
2022-11-24T19:35:09.425Z,1.66
2022-11-24T19:37:38.812Z,1.75
2022-11-24T19:40:09.438Z,1.87
2022-11-24T19:42:38.835Z,2.04
2022-11-24T19:45:09.172Z,2.18
2022-11-24T19:47:38.836Z,2.27
2022-11-24T19:50:10.645Z,2.34
2022-11-24T19:52:40.156Z,2.43
2022-11-24T19:55:09.663Z,2.47
2022-11-24T19:57:38.875Z,2.53
2022-11-24T20:00:13.062Z,2.56
2022-11-24T20:02:42.868Z,2.61
2022-11-24T20:05:12.307Z,2.71
2022-11-24T20:07:42.144Z,2.81
2022-11-24T20:10:12.099Z,2.90
2022-11-24T20:12:41.309Z,3.00
2022-11-24T20:15:11.327Z,3.10
2022-11-24T20:17:40.654Z,3.20
2022-11-24T20:20:10.647Z,3.29
2022-11-24T20:22:40.457Z,3.37
2022-11-24T20:25:11.932Z,3.42
2022-11-24T20:27:41.090Z,3.43
2022-11-24T20:30:11.029Z,3.47
2022-11-24T20:32:40.102Z,3.55
2022-11-24T20:35:16.653Z,3.58
2022-11-24T20:37:47.427Z,3.59
2022-11-24T20:40:16.955Z,3.63
2022-11-24T20:42:46.460Z,3.69
2022-11-24T20:45:15.674Z,3.75
2022-11-24T20:47:45.865Z,3.77
2022-11-24T20:50:15.463Z,3.78
2022-11-24T20:52:44.825Z,3.79
2022-11-24T20:55:13.951Z,3.78
2022-11-24T20:57:43.612Z,3.81
2022-11-24T21:00:13.506Z,3.85
2022-11-24T21:02:42.801Z,3.89
2022-11-24T21:05:12.133Z,3.91
2022-11-24T21:07:41.214Z,3.96
2022-11-24T21:10:10.664Z,3.99
2022-11-24T21:12:39.923Z,4.00
2022-11-24T21:15:10.200Z,4.04
2022-11-24T21:17:40.272Z,4.06
2022-11-24T21:20:11.644Z,4.11
2022-11-24T21:22:41.263Z,4.14
2022-11-24T21:25:11.289Z,4.17
2022-11-24T21:27:41.020Z,4.25
2022-11-24T21:30:11.197Z,4.30
2022-11-24T21:32:40.632Z,4.30
2022-11-24T21:35:10.310Z,4.29
2022-11-24T21:37:39.925Z,4.31
2022-11-24T21:40:10.013Z,4.38
2022-11-24T21:42:39.191Z,4.37
2022-11-24T21:45:12.800Z,4.35
2022-11-24T21:47:43.346Z,4.32
2022-11-24T21:50:13.783Z,4.28
2022-11-24T21:52:43.419Z,4.25
2022-11-24T21:55:12.503Z,4.33
2022-11-24T21:57:42.170Z,4.42
2022-11-24T22:00:12.095Z,4.43
2022-11-24T22:02:41.636Z,4.43
2022-11-24T22:05:11.458Z,4.42
2022-11-24T22:07:40.692Z,4.45
2022-11-24T22:10:10.986Z,4.50
2022-11-24T22:12:40.322Z,4.59
2022-11-24T22:15:10.875Z,4.59
2022-11-24T22:17:40.014Z,4.57
2022-11-24T22:20:10.146Z,4.52
2022-11-24T22:22:39.295Z,4.46
2022-11-24T22:25:09.452Z,4.44
2022-11-24T22:27:38.780Z,4.43
2022-11-24T22:30:09.271Z,4.40
2022-11-24T22:32:39.305Z,4.34
2022-11-24T22:35:09.837Z,4.26
2022-11-24T22:37:39.089Z,4.20
2022-11-24T22:40:12.386Z,4.16
2022-11-24T22:42:41.522Z,4.14
2022-11-24T22:45:13.847Z,4.14
2022-11-24T22:47:43.162Z,4.11
2022-11-24T22:50:13.175Z,4.07
2022-11-24T22:52:45.335Z,4.03
2022-11-24T22:55:14.637Z,3.99
2022-11-24T22:57:47.908Z,3.91
2022-11-24T23:00:18.786Z,3.83
2022-11-24T23:02:48.666Z,3.79
2022-11-24T23:05:20.735Z,3.76
2022-11-24T23:07:50.280Z,3.70
2022-11-24T23:10:19.726Z,3.63
2022-11-24T23:12:51.224Z,3.53
2022-11-24T23:15:20.581Z,3.42
2022-11-24T23:17:50.892Z,3.33
2022-11-24T23:20:20.292Z,3.21
2022-11-24T23:22:49.520Z,3.10
2022-11-24T23:25:19.118Z,3.03
2022-11-24T23:27:48.483Z,2.97
2022-11-24T23:30:18.201Z,2.91
2022-11-24T23:32:47.625Z,2.83
2022-11-24T23:35:17.238Z,2.77
2022-11-24T23:38:06.616Z,2.69
2022-11-24T23:40:35.943Z,2.59
2022-11-24T23:43:05.156Z,2.53
2022-11-24T23:45:34.418Z,2.49
2022-11-24T23:48:04.116Z,2.42
2022-11-24T23:50:33.492Z,2.38
2022-11-24T23:53:02.781Z,2.34
2022-11-24T23:55:32.167Z,2.31
2022-11-24T23:58:01.170Z,2.30
